Aérodrome :
LOGIN :

S'inscrire | Disclaimer

   EN    FR    IT 

 










Légende :    VFR   VFR Marginal   IFR   IFR Intensif   IFR Très Intensif
Visi : 
Plafond : 
>= 8 km
>= 3000ft
5 à 8 km
1000 à 3000 ft
1500m à 5 km
500 à 1000 ft
800 à 1500m
200 à 500 ft
< 800m
< 200 ft
Symboles :   Orages  Brouillard  Fortes neiges  Fortes précipitations  Vent > 20 kt
SIGMETs :   Divers  Orages  Givrage  Turbulence  Onde Orograph.  Cendres Volcan.







- Altitude de l'aérodrome : 49 ft
- Code IATA : GLZ


EHGR - Gilze-Rijen Airbase

DERNIER METAR :
  • 181455Z AUTO 23014KT 200V270 9999 FEW046 25/13 Q1012 BLU

METARs EXPIRÉS :
  • 181425Z AUTO 22012KT 180V270 9999 FEW048 26/13 Q1012 BLU 22012G22KT CAVOK
  • 181355Z AUTO 23010KT 180V280 9999 FEW050 26/13 Q1012 BLU 24012G22KT CAVOK
  • 181325Z AUTO 22013G23KT 200V270 9999 NCD 26/11 Q1012 BLU 24012G22KT CAVOK
  • 181255Z AUTO 24011KT 180V260 9999 NCD 26/12 Q1011 BLU 24012G22KT CAVOK
  • 181225Z AUTO 24012KT 190V270 9999 NCD 26/12 Q1011 BLU 24012G22KT CAVOK

TAF TAF EHGR
Valide du 18 à 13h jusqu'au 19 à 01h UTC


181220Z 1813/1901 23015G25KT CAVOK
BECMG 1816/1818 26010KT
BECMG 1819/1821 22005KT
Pas de NOTAMs connus pour ce terrain.



MET'MAP, la Météo Aéronautique d'un coup d'oeil ! - Copyright ORBIFLY Décembre 2007 - Disclaimer

ORBIFLY MET'MAP TEAM :

Programmation & Développement : Alexandra Zaïnal
Conception & Développement : Baudouin d'Aumeries
Co-Programmation & Développement : Marc-Olivier Méhu
Soutien technique & logistique : Manuel Goepfert

Contact : metmap@orbifly.com




SOURCES & CREDITS :

   NOAA